Fort Severn, Canada
Current Conditions -  °F | °C
As of 11:00 PM on Sunday 23 Nov 2014 (Local Time) from CYER Reporting Station
Few Clouds Few Clouds  
Wind Chill: -21°   Ceiling: Unl
Heat Index: -8°   Visibility: 9mi
Dew Point: -11°   Wind: 6mph
Humidity: 84%   Direction: 280°W
Pressure: 29.92"   Gusts: NA
Location:  55.98°N, 87.65°W
Report Text: CYER 240400Z AUTO 28005KT 9SM FEW150 M22/M24 A2992 RMK SLP134
Loading
Personal Weather Stations






























Interactive Weather Map New forecast layout! Learn more

10-Day Weather Forecast

Advertisements
Track Severe Weather on mobile